Time;durP1;ratioP1;P1;durP2;ratioP2;P2;SDS_P1;SDS_P2;PMS_P1;PMS_P2;Temp;Humidity;BMP_temperature;BMP_pressure;BME280_temperature;BME280_humidity;BME280_pressure;Samples;Min_cycle;Max_cycle;Signal;HPM_P1;HPM_P2
2024/03/12 00:00:23;;;;;;;16.67;7.95;;;;;;;0.54;51.93;101181.52;1648947;87;21047;-76
2024/03/12 00:02:52;;;;;;;19.17;8.38;;;;;;;0.55;52.03;101186.80;1655522;85;21095;-74
2024/03/12 00:05:21;;;;;;;18.62;7.62;;;;;;;0.54;52.12;101177.48;1659901;84;21067;-76
2024/03/12 00:07:53;;;;;;;18.57;7.90;;;;;;;0.51;52.19;101170.48;1656504;83;21083;-75
2024/03/12 00:10:23;;;;;;;18.67;8.18;;;;;;;0.53;52.15;101173.06;1651773;85;21058;-76
2024/03/12 00:12:53;;;;;;;19.02;7.78;;;;;;;0.53;52.13;101173.92;1655516;87;21056;-77
2024/03/12 00:15:24;;;;;;;23.20;8.40;;;;;;;0.54;52.20;101168.05;1621253;87;21115;-76
2024/03/12 00:17:54;;;;;;;16.73;7.62;;;;;;;0.52;52.23;101163.25;1660116;84;21112;-74
2024/03/12 00:20:39;;;;;;;19.27;8.65;;;;;;;0.51;52.23;101162.39;1656260;84;21149;-76
2024/03/12 00:23:06;;;;;;;17.48;8.08;;;;;;;0.51;52.28;101166.92;1653384;85;21063;-77
2024/03/12 00:25:36;;;;;;;19.75;8.75;;;;;;;0.52;52.25;101170.00;1649102;86;21086;-74
2024/03/12 00:28:08;;;;;;;18.45;7.83;;;;;;;0.54;52.16;101168.05;1655839;85;21106;-75
2024/03/12 00:30:40;;;;;;;22.32;9.00;;;;;;;0.56;52.10;101163.40;1649190;85;21051;-76
2024/03/12 00:33:09;;;;;;;15.83;7.58;;;;;;;0.57;52.03;101159.23;1659701;85;21063;-75
2024/03/12 00:35:43;;;;;;;20.48;9.13;;;;;;;0.61;51.96;101153.13;1657369;85;21078;-76
2024/03/12 00:38:10;;;;;;;18.95;8.63;;;;;;;0.61;51.97;101154.47;1649241;86;21114;-76
2024/03/12 00:40:42;;;;;;;17.57;8.35;;;;;;;0.62;52.04;101158.41;1649238;85;21099;-76
2024/03/12 00:43:11;;;;;;;18.42;8.38;;;;;;;0.63;51.99;101160.61;1660936;83;21474;-77
2024/03/12 00:45:41;;;;;;;17.40;7.67;;;;;;;0.59;52.10;101153.25;1655119;85;21086;-77
2024/03/12 00:48:15;;;;;;;17.90;7.58;;;;;;;0.60;52.24;101155.45;1652939;85;21098;-75
2024/03/12 00:50:46;;;;;;;23.47;7.97;;;;;;;0.60;52.15;101151.41;1653677;85;21059;-76
2024/03/12 00:53:15;;;;;;;16.00;7.67;;;;;;;0.62;52.08;101150.31;1651756;85;21090;-76
2024/03/12 00:55:47;;;;;;;19.48;8.63;;;;;;;0.62;52.14;101145.41;1650411;86;22007;-76
2024/03/12 00:58:19;;;;;;;18.80;8.30;;;;;;;0.57;52.20;101143.55;1652058;84;21091;-75
2024/03/12 01:00:48;;;;;;;17.30;7.87;;;;;;;0.53;52.29;101144.27;1649109;85;21051;-76
2024/03/12 01:03:18;;;;;;;23.70;8.15;;;;;;;0.50;52.37;101151.23;1657688;84;21071;-76
2024/03/12 01:05:46;;;;;;;17.02;7.55;;;;;;;0.48;52.48;101135.66;1653519;85;21039;-76
2024/03/12 01:08:15;;;;;;;20.70;7.47;;;;;;;0.48;52.50;101136.16;1658012;84;21540;-76
2024/03/12 01:10:45;;;;;;;20.05;8.48;;;;;;;0.50;52.49;101132.86;1649191;86;21486;-76
2024/03/12 01:13:15;;;;;;;17.82;7.87;;;;;;;0.50;52.52;101130.16;1649080;86;21101;-75
2024/03/12 01:15:45;;;;;;;15.88;7.70;;;;;;;0.49;52.58;101129.78;1651234;86;21086;-76
2024/03/12 01:18:14;;;;;;;19.52;8.10;;;;;;;0.50;52.57;101132.86;1665021;83;21090;-76
2024/03/12 01:20:43;;;;;;;19.32;7.80;;;;;;;0.48;52.63;101126.72;1651175;86;21114;-77
2024/03/12 01:23:13;;;;;;;18.27;8.03;;;;;;;0.48;52.71;101127.58;1657501;85;21059;-76
2024/03/12 01:25:48;;;;;;;20.35;8.10;;;;;;;0.48;52.74;101126.23;1651479;86;21466;-75
2024/03/12 01:28:17;;;;;;;19.48;8.05;;;;;;;0.47;52.84;101125.86;1656980;85;21573;-75
2024/03/12 01:30:47;;;;;;;16.10;8.05;;;;;;;0.48;52.84;101127.58;1649904;85;21079;-76
2024/03/12 01:33:18;;;;;;;17.35;7.62;;;;;;;0.49;52.83;101125.73;1656938;85;21182;-77
2024/03/12 01:35:47;;;;;;;17.27;8.10;;;;;;;0.48;52.88;101127.58;1651783;85;21087;-76
2024/03/12 01:38:16;;;;;;;14.38;7.10;;;;;;;0.50;52.94;101119.38;1660546;85;21502;-76
2024/03/12 01:40:44;;;;;;;14.98;7.03;;;;;;;0.50;52.97;101119.38;1655729;84;21511;-78
2024/03/12 01:43:14;;;;;;;16.25;7.78;;;;;;;0.47;53.03;101122.30;1658523;85;21074;-76
2024/03/12 01:45:43;;;;;;;19.57;8.63;;;;;;;0.44;53.08;101119.34;1649410;86;21135;-77
2024/03/12 01:48:12;;;;;;;15.45;7.53;;;;;;;0.46;53.12;101111.14;1652955;84;21126;-76
2024/03/12 01:50:41;;;;;;;20.30;8.23;;;;;;;0.44;53.19;101115.79;1659286;84;21062;-77
2024/03/12 01:53:11;;;;;;;16.35;7.78;;;;;;;0.43;53.26;101115.42;1649040;85;21059;-75
2024/03/12 01:55:45;;;;;;;21.45;8.08;;;;;;;0.42;53.31;101115.05;1652926;85;21090;-75
2024/03/12 01:58:18;;;;;;;19.73;7.80;;;;;;;0.42;53.32;101115.05;1660134;85;21905;-76
2024/03/12 02:00:48;;;;;;;20.97;8.43;;;;;;;0.41;53.34;101111.48;1649998;85;21511;-77
2024/03/12 02:03:18;;;;;;;21.23;8.70;;;;;;;0.42;53.28;101113.20;1656944;85;21047;-77
2024/03/12 02:05:47;;;;;;;19.32;8.25;;;;;;;0.44;53.31;101111.75;1658661;85;21066;-76
2024/03/12 02:08:16;;;;;;;19.40;8.35;;;;;;;0.44;53.34;101105.87;1649892;86;21063;-77
2024/03/12 02:10:45;;;;;;;19.42;8.18;;;;;;;0.42;53.38;101116.39;1669605;85;21536;-75
2024/03/12 02:13:14;;;;;;;19.37;7.70;;;;;;;0.39;53.59;101104.00;1652862;85;21083;-76
2024/03/12 02:15:44;;;;;;;16.32;7.50;;;;;;;0.38;53.65;101107.67;1659147;85;21051;-76
2024/03/12 02:18:14;;;;;;;18.62;8.23;;;;;;;0.39;53.72;101102.66;1649074;86;21075;-75
2024/03/12 02:20:43;;;;;;;21.17;8.65;;;;;;;0.41;53.71;101098.50;1656021;84;22105;-76
2024/03/12 02:23:12;;;;;;;22.87;8.40;;;;;;;0.42;53.77;101102.91;1648828;85;21063;-76
2024/03/12 02:25:42;;;;;;;21.27;8.48;;;;;;;0.43;53.80;101104.63;1666808;84;21062;-77
2024/03/12 02:28:11;;;;;;;19.45;8.55;;;;;;;0.41;53.95;101095.31;1651321;85;21514;-76
2024/03/12 02:30:41;;;;;;;21.57;8.88;;;;;;;0.40;54.03;101098.13;1655225;84;21061;-76
2024/03/12 02:33:10;;;;;;;19.42;8.50;;;;;;;0.40;54.11;101094.08;1656679;84;21510;-76
2024/03/12 02:35:40;;;;;;;22.15;9.05;;;;;;;0.43;54.13;101095.20;1648915;85;21095;-76
2024/03/12 02:38:08;;;;;;;21.97;8.63;;;;;;;0.44;54.21;101091.04;1651953;85;21043;-76
2024/03/12 02:40:38;;;;;;;20.50;8.85;;;;;;;0.40;54.18;101088.69;1649007;85;21035;-74
2024/03/12 02:43:08;;;;;;;21.33;9.35;;;;;;;0.34;54.34;101095.41;1658707;84;21042;-75
2024/03/12 02:45:38;;;;;;;25.50;9.03;;;;;;;0.34;54.44;101092.70;1656222;84;21051;-75
2024/03/12 02:48:09;;;;;;;31.30;10.20;;;;;;;0.36;54.54;101089.41;1653115;84;21079;-75
2024/03/12 02:50:38;;;;;;;26.93;9.95;;;;;;;0.36;54.55;101093.45;1654630;85;21067;-75
2024/03/12 02:53:07;;;;;;;28.52;10.35;;;;;;;0.36;54.60;101087.20;1650874;86;21067;-77
2024/03/12 02:55:36;;;;;;;24.55;10.25;;;;;;;0.36;54.67;101087.20;1657847;85;21059;-77
2024/03/12 02:58:06;;;;;;;28.10;10.45;;;;;;;0.31;54.78;101078.98;1661296;85;21089;-76
2024/03/12 03:00:35;;;;;;;28.32;11.08;;;;;;;0.33;54.89;101079.34;1649160;85;21094;-76
2024/03/12 03:03:05;;;;;;;22.90;9.70;;;;;;;0.29;54.91;101082.28;1650202;86;21098;-76
2024/03/12 03:05:35;;;;;;;23.98;10.30;;;;;;;0.31;55.00;101076.77;1655378;85;21102;-75
2024/03/12 03:08:05;;;;;;;23.77;10.05;;;;;;;0.30;55.00;101075.91;1649412;85;21079;-76
2024/03/12 03:10:34;;;;;;;29.77;11.85;;;;;;;0.30;55.09;101079.95;1648935;86;21090;-75
2024/03/12 03:13:03;;;;;;;27.20;11.10;;;;;;;0.33;55.18;101074.81;1652624;85;21059;-76
2024/03/12 03:15:33;;;;;;;31.62;11.50;;;;;;;0.34;55.20;101080.58;1664289;83;21058;-76
2024/03/12 03:18:02;;;;;;;29.75;11.57;;;;;;;0.32;55.24;101077.14;1644835;86;21079;-75
2024/03/12 03:20:31;;;;;;;25.82;11.18;;;;;;;0.30;55.37;101075.91;1658007;86;21061;-75
2024/03/12 03:23:00;;;;;;;29.42;11.78;;;;;;;0.33;55.42;101082.05;1662718;85;21117;-76
2024/03/12 03:25:28;;;;;;;28.47;11.55;;;;;;;0.34;55.42;101077.03;1655870;85;21063;-76
2024/03/12 03:27:57;;;;;;;27.35;10.43;;;;;;;0.31;55.47;101076.28;1653151;84;21572;-75
2024/03/12 03:30:27;;;;;;;27.45;10.50;;;;;;;0.32;55.52;101071.75;1650029;85;21106;-76
2024/03/12 03:32:56;;;;;;;26.05;10.85;;;;;;;0.31;55.55;101066.84;1653736;84;21130;-76
2024/03/12 03:35:25;;;;;;;21.12;9.43;;;;;;;0.29;55.58;101063.41;1649775;86;21055;-76
2024/03/12 03:37:54;;;;;;;30.10;9.23;;;;;;;0.27;55.73;101058.62;1658070;83;21090;-76
2024/03/12 03:40:23;;;;;;;20.55;8.08;;;;;;;0.27;55.74;101064.50;1650316;85;21069;-71
2024/03/12 03:42:56;;;;;;;21.25;8.00;;;;;;;0.27;55.87;101056.41;1658215;85;21098;-76
2024/03/12 03:45:24;;;;;;;19.90;8.75;;;;;;;0.27;55.90;101060.45;1659393;84;21070;-74
2024/03/12 03:47:53;;;;;;;18.55;8.30;;;;;;;0.25;55.97;101061.92;1667805;85;21122;-75
2024/03/12 03:50:21;;;;;;;16.95;8.20;;;;;;;0.23;56.01;101058.48;1653562;86;21043;-74
2024/03/12 03:52:52;;;;;;;20.97;8.30;;;;;;;0.22;56.16;101062.16;1647955;85;21123;-76
2024/03/12 03:55:23;;;;;;;18.57;7.70;;;;;;;0.24;56.05;101064.24;1650453;85;21106;-75
2024/03/12 03:57:52;;;;;;;17.95;8.08;;;;;;;0.24;56.00;101060.69;1655185;84;21157;-75
2024/03/12 04:00:28;;;;;;;17.85;7.35;;;;;;;0.25;55.99;101061.06;1654642;86;21503;-73
2024/03/12 04:02:56;;;;;;;16.80;7.30;;;;;;;0.28;56.03;101060.34;1653631;84;21091;-74
2024/03/12 04:05:37;;;;;;;17.25;7.97;;;;;;;0.35;55.90;101053.14;1717931;82;21184;-75
2024/03/12 04:08:07;;;;;;;17.60;8.35;;;;;;;0.33;55.87;101053.25;1716037;82;21088;-76
2024/03/12 04:10:36;;;;;;;16.10;7.30;;;;;;;0.35;55.86;101050.45;1710098;82;21056;-76
2024/03/12 04:13:05;;;;;;;22.00;8.58;;;;;;;0.37;55.76;101054.74;1704080;84;21105;-75
2024/03/12 04:15:34;;;;;;;21.68;8.80;;;;;;;0.38;55.82;101052.91;1711593;82;21093;-76
2024/03/12 04:18:05;;;;;;;20.48;8.03;;;;;;;0.39;55.85;101051.93;1705274;83;21065;-75
2024/03/12 04:20:34;;;;;;;19.10;8.20;;;;;;;0.37;55.95;101052.05;1705801;82;21505;-75
2024/03/12 04:23:05;;;;;;;20.30;9.00;;;;;;;0.36;56.00;101046.28;1705632;81;21069;-75
2024/03/12 04:25:33;;;;;;;21.80;8.60;;;;;;;0.40;55.98;101047.77;1708202;82;21093;-76
2024/03/12 04:28:02;;;;;;;27.40;9.48;;;;;;;0.41;56.09;101045.94;1707160;82;21019;-75
2024/03/12 04:30:31;;;;;;;27.20;9.65;;;;;;;0.39;56.14;101044.70;1711165;82;21041;-74
2024/03/12 04:33:02;;;;;;;26.15;9.38;;;;;;;0.41;56.20;101046.80;1704228;84;21065;-75
2024/03/12 04:35:31;;;;;;;22.20;9.08;;;;;;;0.44;56.15;101041.66;1669001;84;21576;-74
2024/03/12 04:38:02;;;;;;;25.32;9.83;;;;;;;0.47;56.10;101041.42;1710447;82;21064;-75
2024/03/12 04:40:31;;;;;;;30.82;10.43;;;;;;;0.47;56.07;101034.19;1711569;83;21053;-74
2024/03/12 04:42:59;;;;;;;26.90;9.00;;;;;;;0.48;56.07;101033.22;1712350;82;21085;-75
2024/03/12 04:45:29;;;;;;;23.87;8.68;;;;;;;0.54;56.05;101037.28;1710687;83;21085;-76
2024/03/12 04:47:58;;;;;;;24.25;8.98;;;;;;;0.57;56.06;101036.55;1714143;82;21497;-76
2024/03/12 04:50:27;;;;;;;19.60;8.83;;;;;;;0.63;56.00;101036.56;1701322;82;21568;-75
2024/03/12 04:52:56;;;;;;;19.23;7.67;;;;;;;0.67;55.85;101039.43;1702183;82;21053;-75
2024/03/12 04:55:25;;;;;;;23.50;8.50;;;;;;;0.66;55.71;101035.02;1705840;82;21431;-76
2024/03/12 04:57:54;;;;;;;17.87;7.20;;;;;;;0.64;55.72;101033.75;1710283;82;21109;-75
2024/03/12 05:00:23;;;;;;;22.62;9.90;;;;;;;0.69;55.82;101037.47;1708771;82;21540;-75
2024/03/12 05:02:52;;;;;;;20.00;7.87;;;;;;;0.72;55.73;101037.73;1706550;82;21073;-75
2024/03/12 05:05:21;;;;;;;21.57;8.08;;;;;;;0.74;55.66;101039.33;1708331;82;21046;-76
2024/03/12 05:07:51;;;;;;;21.45;8.15;;;;;;;0.78;55.72;101039.45;1711198;82;21582;-75
2024/03/12 05:10:24;;;;;;;23.70;9.08;;;;;;;0.82;55.73;101036.03;1710942;82;21085;-74
2024/03/12 05:12:54;;;;;;;17.85;8.18;;;;;;;0.85;55.74;101041.19;1706387;82;21109;-76
2024/03/12 05:15:23;;;;;;;20.37;7.70;;;;;;;0.84;55.84;101040.33;1704242;82;21076;-75
2024/03/12 05:17:52;;;;;;;17.60;7.70;;;;;;;0.85;55.97;101045.23;1702596;82;21033;-75
2024/03/12 05:20:23;;;;;;;20.27;7.87;;;;;;;0.85;55.92;101046.09;1707516;83;21063;-76
2024/03/12 05:22:54;;;;;;;18.35;7.87;;;;;;;0.88;56.02;101052.59;1719485;82;21151;-76
2024/03/12 05:25:24;;;;;;;20.88;8.55;;;;;;;0.94;55.92;101050.77;1715595;82;21044;-75
2024/03/12 05:27:53;;;;;;;16.55;7.55;;;;;;;0.98;55.94;101050.04;1709826;82;21499;-74
2024/03/12 05:30:23;;;;;;;21.52;8.25;;;;;;;1.03;55.86;101045.62;1704479;83;21066;-74
2024/03/12 05:32:53;;;;;;;23.25;8.78;;;;;;;1.04;55.74;101052.75;1705596;82;21061;-75
2024/03/12 05:35:29;;;;;;;17.27;7.42;;;;;;;1.04;55.68;101054.95;1699689;82;21101;-75
2024/03/12 05:38:03;;;;;;;36.53;10.63;;;;;;;1.07;55.73;101051.16;1706840;82;21054;-72
2024/03/12 05:48:50;;;;;;;23.95;10.03;;;;;;;1.26;55.58;101052.77;1705508;83;21057;-74
2024/03/12 05:51:20;;;;;;;19.92;9.45;;;;;;;1.32;55.50;101054.15;1704633;82;21065;-75
2024/03/12 05:53:49;;;;;;;31.48;11.63;;;;;;;1.36;55.42;101055.13;1707598;82;21100;-76
2024/03/12 05:56:19;;;;;;;28.67;9.98;;;;;;;1.38;55.40;101059.92;1713248;82;21496;-75
2024/03/12 05:58:49;;;;;;;19.75;8.20;;;;;;;1.41;55.38;101049.36;1706507;82;21041;-75
2024/03/12 06:01:18;;;;;;;20.92;9.55;;;;;;;1.44;55.30;101052.67;1708048;83;21614;-75
2024/03/12 06:03:49;;;;;;;20.52;8.68;;;;;;;1.48;55.21;101052.80;1704314;82;21143;-75
2024/03/12 06:06:19;;;;;;;22.70;10.05;;;;;;;1.52;55.25;101053.41;1704492;83;21454;-76
2024/03/12 06:08:48;;;;;;;35.68;16.15;;;;;;;1.53;55.27;101051.08;1711883;82;21509;-75
2024/03/12 06:11:16;;;;;;;26.57;9.33;;;;;;;1.56;55.22;101054.39;1684138;81;21089;-76
2024/03/12 06:13:46;;;;;;;23.62;8.65;;;;;;;1.61;55.17;101055.36;1702251;82;21759;-76
2024/03/12 06:16:18;;;;;;;19.30;8.85;;;;;;;1.63;55.08;101050.70;1701591;82;21049;-75
2024/03/12 06:18:46;;;;;;;18.17;8.88;;;;;;;1.66;55.17;101053.64;1705460;83;21137;-73
2024/03/12 06:21:16;;;;;;;21.57;8.88;;;;;;;1.68;55.19;101051.67;1708661;82;21508;-75
2024/03/12 06:23:45;;;;;;;26.95;12.70;;;;;;;1.70;55.19;101053.76;1705259;82;21065;-77
2024/03/12 06:26:15;;;;;;;24.43;9.73;;;;;;;1.70;55.29;101048.36;1704616;83;21089;-75
2024/03/12 06:28:45;;;;;;;78.55;13.60;;;;;;;1.72;55.32;101047.73;1711185;82;21476;-75
2024/03/12 06:31:14;;;;;;;22.02;9.18;;;;;;;1.73;55.43;101040.00;1703057;82;21093;-75
2024/03/12 06:33:43;;;;;;;23.83;9.55;;;;;;;1.76;55.39;101047.36;1711863;83;21118;-76
2024/03/12 06:36:16;;;;;;;23.95;10.00;;;;;;;1.77;55.35;101044.17;1707979;83;21084;-76
2024/03/12 06:38:47;;;;;;;21.65;9.38;;;;;;;1.79;55.39;101043.55;1707402;82;21063;-76
2024/03/12 06:41:16;;;;;;;39.48;11.43;;;;;;;1.76;55.45;101043.80;1711810;83;21068;-76
2024/03/12 06:43:46;;;;;;;23.32;8.70;;;;;;;1.75;55.63;101042.95;1710028;82;21085;-76
2024/03/12 06:46:19;;;;;;;35.75;10.40;;;;;;;1.77;55.73;101045.52;1706193;82;21468;-75
2024/03/12 06:48:47;;;;;;;29.10;9.88;;;;;;;1.79;55.76;101043.55;1715227;83;21065;-77
2024/03/12 06:51:17;;;;;;;20.20;8.95;;;;;;;1.82;55.88;101043.30;1705466;82;21066;-75
2024/03/12 06:54:07;;;;;;;40.48;10.50;;;;;;;1.87;55.83;101046.48;1703869;84;21105;-74
2024/03/12 06:56:42;;;;;;;39.83;10.00;;;;;;;1.92;55.80;101044.26;1732201;82;21030;-75
2024/03/12 06:59:08;;;;;;;54.65;11.03;;;;;;;1.97;55.90;101042.56;1711044;83;21089;-74
2024/03/12 07:01:41;;;;;;;28.40;10.35;;;;;;;2.00;55.92;101041.81;1707551;83;21094;-76
2024/03/12 07:04:10;;;;;;;37.25;11.15;;;;;;;2.00;55.81;101036.91;1707792;83;21451;-75
2024/03/12 07:06:43;;;;;;;21.95;8.95;;;;;;;2.03;55.88;101044.75;1679046;83;21503;-75
2024/03/12 07:09:23;;;;;;;21.57;10.10;;;;;;;2.07;55.86;101043.02;1663308;86;21536;-77
2024/03/12 07:11:44;;;;;;;20.80;9.85;;;;;;;2.08;55.89;101043.39;1728790;82;21509;-74
2024/03/12 07:14:23;;;;;;;25.17;10.43;;;;;;;2.12;55.92;101050.25;1733064;82;21493;-76
2024/03/12 07:16:45;;;;;;;23.75;10.45;;;;;;;2.14;55.93;101048.28;1719903;81;21043;-75
2024/03/12 07:19:15;;;;;;;25.08;10.38;;;;;;;2.18;55.97;101050.23;1720093;82;21093;-75
2024/03/12 07:21:45;;;;;;;23.75;9.85;;;;;;;2.18;56.03;101052.94;1717494;83;21026;-75
2024/03/12 07:24:15;;;;;;;26.85;10.40;;;;;;;2.20;56.17;101048.27;1722907;81;21058;-75
2024/03/12 07:26:47;;;;;;;17.80;8.75;;;;;;;2.22;56.27;101047.15;1719696;83;21070;-74
2024/03/12 07:29:17;;;;;;;22.13;10.40;;;;;;;2.28;56.20;101048.98;1738766;81;21133;-74
2024/03/12 07:31:47;;;;;;;32.58;10.10;;;;;;;2.27;56.19;101049.47;1724971;81;21077;-74
2024/03/12 07:34:16;;;;;;;23.27;10.10;;;;;;;2.26;56.33;101046.89;1688496;83;21147;-74
2024/03/12 07:36:48;;;;;;;23.20;10.35;;;;;;;2.27;56.46;101048.61;1706453;84;21500;-76
2024/03/12 07:39:30;;;;;;;21.82;10.32;;;;;;;2.27;56.44;101049.47;1732291;82;21106;-75
2024/03/12 07:41:59;;;;;;;24.77;9.98;;;;;;;2.30;56.61;101051.05;1708256;83;21078;-76
2024/03/12 07:44:29;;;;;;;21.68;10.35;;;;;;;2.35;56.66;101046.98;1717771;82;21100;-75
2024/03/12 07:46:58;;;;;;;22.77;10.10;;;;;;;2.41;56.59;101045.60;1726652;83;21462;-75
2024/03/12 07:49:28;;;;;;;29.65;10.38;;;;;;;2.43;56.54;101039.57;1712959;82;21059;-75
2024/03/12 07:51:59;;;;;;;20.65;10.25;;;;;;;2.46;56.62;101044.72;1715749;82;21078;-76
2024/03/12 07:54:29;;;;;;;25.17;10.88;;;;;;;2.50;56.60;101048.88;1717847;82;21576;-75
2024/03/12 07:56:59;;;;;;;25.20;10.98;;;;;;;2.52;56.62;101055.88;1723528;82;21034;-75
2024/03/12 07:59:30;;;;;;;24.30;11.10;;;;;;;2.52;56.68;101052.31;1708644;83;21054;-74
2024/03/12 08:02:11;;;;;;;27.02;10.65;;;;;;;2.57;56.71;101050.57;1715681;82;21121;-75
2024/03/12 08:04:31;;;;;;;25.23;10.43;;;;;;;2.59;56.75;101053.51;1719959;81;21078;-75
2024/03/12 08:07:01;;;;;;;29.75;11.28;;;;;;;2.59;56.79;101041.83;1718487;81;21038;-75
2024/03/12 08:09:31;;;;;;;25.15;11.60;;;;;;;2.60;56.90;101044.90;1720029;82;21018;-74
2024/03/12 08:12:01;;;;;;;34.80;15.15;;;;;;;2.64;56.98;101044.54;1713063;83;21115;-75
2024/03/12 08:14:32;;;;;;;35.33;13.20;;;;;;;2.70;56.99;101046.72;1719146;80;21074;-75
2024/03/12 08:17:05;;;;;;;24.60;12.03;;;;;;;2.73;56.98;101042.40;1684339;83;21103;-75
2024/03/12 08:19:35;;;;;;;28.00;11.93;;;;;;;2.79;57.05;101049.12;1686562;84;21027;-75
2024/03/12 08:22:05;;;;;;;34.20;16.37;;;;;;;2.82;57.06;101057.84;1710844;82;21110;-77
2024/03/12 08:24:37;;;;;;;33.65;13.58;;;;;;;2.83;57.08;101052.80;1675669;85;21060;-75
2024/03/12 08:27:06;;;;;;;28.35;12.10;;;;;;;2.85;57.10;101053.52;1686302;84;21058;-75
2024/03/12 08:29:36;;;;;;;28.45;12.37;;;;;;;2.88;57.14;101051.54;1721609;83;21487;-75
2024/03/12 08:32:06;;;;;;;28.15;12.18;;;;;;;2.89;57.11;101050.55;1720020;82;21022;-75
2024/03/12 08:34:37;;;;;;;28.30;12.90;;;;;;;2.90;57.18;101050.91;1718191;82;21021;-76
2024/03/12 08:37:09;;;;;;;27.87;11.80;;;;;;;2.93;57.23;101050.15;1724967;82;21057;-75
2024/03/12 08:39:37;;;;;;;27.05;12.20;;;;;;;2.96;57.25;101046.32;1678908;83;21122;-75
2024/03/12 08:42:09;;;;;;;28.75;12.45;;;;;;;2.95;57.28;101045.46;1675817;84;21048;-75
2024/03/12 08:44:39;;;;;;;30.68;13.20;;;;;;;2.95;57.53;101042.75;1661677;84;21131;-76
2024/03/12 08:47:08;;;;;;;31.65;12.93;;;;;;;2.99;57.59;101044.70;1730483;82;21520;-76
2024/03/12 08:49:38;;;;;;;28.32;13.30;;;;;;;2.99;57.71;101044.70;1715868;83;21061;-75
2024/03/12 08:52:07;;;;;;;24.00;11.75;;;;;;;3.00;57.76;101048.62;1714698;83;21079;-75
2024/03/12 08:54:37;;;;;;;31.02;13.22;;;;;;;3.01;57.90;101050.84;1677673;85;21063;-75
2024/03/12 08:57:06;;;;;;;30.62;13.20;;;;;;;3.05;57.92;101046.87;1719643;81;21548;-76
2024/03/12 08:59:39;;;;;;;28.87;13.62;;;;;;;3.10;57.95;101051.39;1702861;83;21065;-75
2024/03/12 09:02:10;;;;;;;26.07;12.13;;;;;;;3.14;58.05;101045.58;1729182;82;21058;-71
2024/03/12 09:04:39;;;;;;;29.60;12.73;;;;;;;3.20;58.62;101042.83;1721306;81;21532;-68
2024/03/12 09:07:08;;;;;;;28.55;13.50;;;;;;;3.40;59.45;101043.31;1686165;84;21062;-74
2024/03/12 09:09:39;;;;;;;26.02;12.88;;;;;;;3.49;59.99;101042.98;1681279;84;21034;-75
2024/03/12 09:12:09;;;;;;;25.40;12.85;;;;;;;3.56;58.85;101051.43;1657504;84;21405;-74
2024/03/12 09:14:41;;;;;;;31.40;12.68;;;;;;;3.54;58.33;101045.30;1628197;87;21103;-75
2024/03/12 09:17:14;;;;;;;32.75;13.72;;;;;;;3.48;58.25;101037.21;1674653;85;21091;-72
2024/03/12 09:19:43;;;;;;;33.88;14.60;;;;;;;3.48;59.40;101042.62;1678243;83;21095;-73
2024/03/12 09:22:12;;;;;;;37.83;16.32;;;;;;;3.48;59.03;101042.14;1681275;81;21515;-73
2024/03/12 09:24:43;;;;;;;36.48;14.75;;;;;;;3.48;58.93;101044.84;1691423;83;21032;-72
2024/03/12 09:27:15;;;;;;;39.90;14.73;;;;;;;3.49;58.98;101038.92;1660480;84;21546;-72
2024/03/12 09:29:45;;;;;;;31.30;13.30;;;;;;;3.52;59.08;101033.73;1675974;84;21083;-71
2024/03/12 09:32:14;;;;;;;33.18;14.43;;;;;;;3.55;59.05;101035.67;1672222;84;21051;-74
2024/03/12 09:34:43;;;;;;;36.38;14.80;;;;;;;3.56;59.11;101037.39;1631174;88;21111;-73
2024/03/12 09:37:15;;;;;;;30.80;14.25;;;;;;;3.56;59.21;101033.81;1629852;86;21143;-74
2024/03/12 09:39:44;;;;;;;27.67;12.78;;;;;;;3.58;59.60;101034.54;1688384;84;21162;-75
2024/03/12 09:42:14;;;;;;;33.50;15.45;;;;;;;3.59;59.36;101035.76;1713018;82;21060;-73
2024/03/12 09:44:44;;;;;;;30.95;14.33;;;;;;;3.59;59.66;101035.76;1711827;83;21068;-75
2024/03/12 09:47:13;;;;;;;32.05;14.25;;;;;;;3.57;59.65;101032.83;1708306;83;21056;-75
2024/03/12 09:49:43;;;;;;;26.68;13.20;;;;;;;3.53;60.09;101027.32;1706847;83;21517;-76
2024/03/12 09:52:13;;;;;;;32.42;14.63;;;;;;;3.53;60.26;101026.83;1686755;83;21078;-73
2024/03/12 09:54:42;;;;;;;28.15;13.88;;;;;;;3.55;60.88;101032.97;1708248;83;21079;-74
2024/03/12 09:57:12;;;;;;;29.60;13.83;;;;;;;3.58;61.10;101029.98;1709402;83;21079;-71
2024/03/12 09:59:41;;;;;;;30.23;14.40;;;;;;;3.56;60.80;101031.97;1711423;83;21094;-74
2024/03/12 10:02:10;;;;;;;27.42;14.03;;;;;;;3.54;61.53;101027.68;1705608;83;21129;-72
2024/03/12 10:04:41;;;;;;;27.80;14.10;;;;;;;3.56;61.82;101022.48;1707219;82;21137;-74
2024/03/12 10:07:11;;;;;;;33.78;13.90;;;;;;;3.59;62.14;101025.42;1709375;82;21500;-74
2024/03/12 10:09:41;;;;;;;29.67;14.58;;;;;;;3.58;63.11;101020.98;1718937;81;21117;-72
2024/03/12 10:12:11;;;;;;;23.52;12.58;;;;;;;3.55;63.41;101023.48;1697970;82;21042;-74
2024/03/12 10:14:41;;;;;;;27.35;13.20;;;;;;;3.49;63.32;101016.76;1707571;82;21517;-73
2024/03/12 10:17:16;;;;;;;28.47;13.62;;;;;;;3.47;63.75;101026.87;1696104;83;21510;-73
2024/03/12 10:19:48;;;;;;;27.02;14.90;;;;;;;3.45;64.70;101027.51;1727521;82;21013;-75
2024/03/12 10:22:20;;;;;;;32.00;13.20;;;;;;;3.43;64.62;101024.08;1719703;81;21075;-74
2024/03/12 10:24:52;;;;;;;28.30;14.38;;;;;;;3.42;64.81;101014.73;1713944;82;21093;-73
2024/03/12 10:27:23;;;;;;;29.52;14.35;;;;;;;3.40;65.35;101020.29;1707286;82;21015;-75
2024/03/12 10:29:52;;;;;;;28.60;14.80;;;;;;;3.42;66.39;101025.07;1720376;81;21038;-74
2024/03/12 10:32:31;;;;;;;24.72;13.13;;;;;;;3.41;66.47;101022.00;1709965;83;21050;-73
2024/03/12 10:34:59;;;;;;;31.45;14.98;;;;;;;3.37;66.95;101029.19;1712995;82;21106;-72
2024/03/12 10:37:30;;;;;;;25.80;13.48;;;;;;;3.30;67.30;101027.52;1719004;81;21520;-74
2024/03/12 10:40:17;;;;;;;24.50;11.70;;;;;;;3.22;68.15;101031.36;1719861;82;21078;-74
2024/03/12 10:42:58;;;;;;;;;;;;;;;3.15;68.87;101028.83;1697109;83;21156;-74
2024/03/12 10:45:29;;;;;;;22.85;10.88;;;;;;;3.08;69.62;101027.16;1714566;82;20549;-74
2024/03/12 10:47:59;;;;;;;23.73;11.12;;;;;;;2.99;70.62;101032.52;1711329;83;21035;-73
2024/03/12 10:50:29;;;;;;;24.18;11.30;;;;;;;2.83;71.30;101028.44;1721602;82;21125;-76
2024/03/12 10:53:01;;;;;;;23.73;11.33;;;;;;;2.78;72.22;101020.35;1709003;82;21059;-73
2024/03/12 10:55:33;;;;;;;21.17;11.20;;;;;;;2.82;73.83;101025.86;1716243;81;21066;-74
2024/03/12 10:58:04;;;;;;;21.73;11.08;;;;;;;2.85;74.44;101025.10;1712376;82;21038;-73
2024/03/12 11:00:35;;;;;;;25.40;12.18;;;;;;;2.81;74.83;101027.72;1707628;82;21047;-75
2024/03/12 11:03:05;;;;;;;25.85;12.33;;;;;;;2.72;75.52;101020.39;1709320;82;21447;-77
2024/03/12 11:05:34;;;;;;;28.90;12.82;;;;;;;2.67;75.90;101023.98;1714016;81;21548;-74
2024/03/12 11:08:05;;;;;;;26.07;12.50;;;;;;;2.67;76.45;101020.42;1710540;83;21130;-74
2024/03/12 11:10:35;;;;;;;26.52;13.13;;;;;;;2.65;76.74;101020.55;1705353;83;21082;-74
2024/03/12 11:13:07;;;;;;;30.35;12.98;;;;;;;2.63;77.17;101014.91;1710044;83;21035;-74
2024/03/12 11:15:36;;;;;;;22.50;12.28;;;;;;;2.58;77.67;101017.98;1706782;83;21510;-73
2024/03/12 11:18:06;;;;;;;27.87;13.22;;;;;;;2.55;78.06;101010.13;1711242;83;21055;-73
2024/03/12 11:20:40;;;;;;;21.82;11.80;;;;;;;2.49;78.49;101009.30;1709033;83;21027;-74
2024/03/12 11:23:10;;;;;;;26.20;12.60;;;;;;;2.46;79.25;101019.03;1682982;83;21350;-73
2024/03/12 11:25:45;;;;;;;22.55;11.83;;;;;;;2.42;79.46;101023.84;1710050;83;21182;-75
2024/03/12 11:28:22;;;;;;;24.98;11.57;;;;;;;2.42;79.92;101009.45;1712057;82;21060;-73
2024/03/12 11:31:04;;;;;;;23.25;11.40;;;;;;;2.42;80.17;101018.43;1712704;83;21126;-74
2024/03/12 11:33:45;;;;;;;19.02;10.98;;;;;;;2.36;80.40;101016.73;1684317;84;21060;-74
2024/03/12 11:36:26;;;;;;;17.02;9.73;;;;;;;2.30;80.87;101019.96;1710880;83;21067;-73
2024/03/12 11:39:11;;;;;;;21.23;11.15;;;;;;;2.20;81.24;101013.13;1711289;84;21072;-75
2024/03/12 11:42:05;;;;;;;26.27;11.97;;;;;;;2.13;81.71;101018.19;1711604;82;21613;-74
2024/03/12 11:44:54;;;;;;;23.83;11.35;;;;;;;2.13;82.14;101018.19;1709494;83;21055;-73